Lutcher, Louisiana
Current Conditions -  °F | °C
As of 5:55 PM on Saturday 22 Nov 2014 (Local Time) from K1L0 Reporting Station
Overcast Overcast  
Wind Chill: 63°   Ceiling: 1300
Heat Index: 63°   Visibility: 10mi
Dew Point: 58°   Wind: 10mph
Humidity: 86%   Direction: 70°ENE
Pressure: 30.01"   Gusts: NA
Location:  30.04°N, 90.7°W
Report Text: K1L0 222355Z AUTO 07009KT 10SM OVC013 17/15 A3001 RMK AO2 T01700146 10204 20167
Loading
Personal Weather Stations






























Interactive Weather Map New forecast layout! Learn more

10-Day Weather Forecast

Advertisements
Track Severe Weather on mobile